createdAt,value
2018-07-10T06:52:42.903Z,4.37
2018-07-10T06:55:14.960Z,11.93
2018-07-10T06:57:52.786Z,10.37
2018-07-10T07:00:21.892Z,14.70
2018-07-10T07:02:51.045Z,12.53
2018-07-10T07:05:20.133Z,10.60
2018-07-10T07:07:49.471Z,6.00
2018-07-10T07:10:18.666Z,11.20
2018-07-10T07:12:48.109Z,8.33
2018-07-10T07:15:19.033Z,13.93
2018-07-10T07:17:49.304Z,12.80
2018-07-10T07:20:20.121Z,17.37
2018-07-10T07:22:50.281Z,20.77
2018-07-10T07:25:19.429Z,9.30
2018-07-10T07:27:48.545Z,13.30
2018-07-10T07:30:17.729Z,15.60
2018-07-10T07:32:46.972Z,16.60
2018-07-10T07:35:16.256Z,21.82
2018-07-10T07:37:45.381Z,12.50
2018-07-10T07:40:14.466Z,26.17
2018-07-10T07:42:43.564Z,15.23
2018-07-10T07:45:12.676Z,18.53
2018-07-10T07:47:41.829Z,16.87
2018-07-10T07:50:10.930Z,24.03
2018-07-10T07:52:40.137Z,16.37
2018-07-10T07:55:09.216Z,15.38
2018-07-10T07:57:38.315Z,17.00
2018-07-10T08:00:07.438Z,11.27
2018-07-10T08:02:36.577Z,15.37
2018-07-10T08:05:05.757Z,20.33
2018-07-10T08:07:34.857Z,25.00
2018-07-10T08:10:03.986Z,16.45
2018-07-10T08:12:33.088Z,18.27
2018-07-10T08:15:03.616Z,18.05
2018-07-10T08:17:36.208Z,20.60
2018-07-10T08:20:06.230Z,20.07
2018-07-10T08:22:35.354Z,13.80
2018-07-10T08:25:05.835Z,19.02
2018-07-10T08:27:36.730Z,18.82
2018-07-10T08:30:05.958Z,14.98
2018-07-10T08:32:36.434Z,15.00
2018-07-10T08:35:05.584Z,20.43
2018-07-10T08:37:34.673Z,18.17
2018-07-10T08:40:03.791Z,22.63
2018-07-10T08:42:32.948Z,16.53
2018-07-10T08:45:02.102Z,11.33
2018-07-10T08:47:31.223Z,18.90
2018-07-10T08:50:00.341Z,17.27
2018-07-10T08:52:29.456Z,14.65
2018-07-10T08:54:58.592Z,14.87
2018-07-10T08:57:28.412Z,12.20
2018-07-10T08:59:57.915Z,10.70
2018-07-10T09:02:26.978Z,14.80
2018-07-10T09:04:56.106Z,18.53
2018-07-10T09:07:25.224Z,8.10
2018-07-10T09:09:54.350Z,8.88
2018-07-10T09:12:23.469Z,11.67
2018-07-10T09:14:52.618Z,12.93
2018-07-10T09:17:21.713Z,16.83
2018-07-10T09:19:50.861Z,11.80
2018-07-10T09:22:20.005Z,13.13
2018-07-10T09:24:52.151Z,11.33
2018-07-10T09:27:30.048Z,6.53
2018-07-10T09:29:59.204Z,14.90
2018-07-10T09:32:33.707Z,5.28
2018-07-10T09:35:02.807Z,9.53
2018-07-10T09:37:38.237Z,14.73
2018-07-10T09:40:12.659Z,8.73
2018-07-10T09:43:15.229Z,14.23
2018-07-10T09:45:44.369Z,7.70
2018-07-10T09:48:13.456Z,5.57
2018-07-10T09:50:42.670Z,12.50
2018-07-10T09:53:11.803Z,11.10
2018-07-10T09:55:40.957Z,15.03
2018-07-10T09:58:11.645Z,7.20
2018-07-10T10:00:46.013Z,12.53
2018-07-10T10:03:15.136Z,15.13
2018-07-10T10:05:45.253Z,10.53
2018-07-10T10:08:14.380Z,8.40
2018-07-10T10:10:43.457Z,4.85
2018-07-10T10:13:12.591Z,10.33
2018-07-10T10:15:42.009Z,8.13
2018-07-10T10:18:11.178Z,3.80
2018-07-10T10:20:41.796Z,6.60
2018-07-10T10:23:12.973Z,4.87
2018-07-10T10:25:43.552Z,6.80
2018-07-10T10:28:12.588Z,5.40
2018-07-10T10:30:41.676Z,4.30
2018-07-10T10:33:11.392Z,6.77
2018-07-10T10:35:40.544Z,5.10
2018-07-10T10:38:09.620Z,12.93
2018-07-10T10:40:40.092Z,3.37
2018-07-10T10:43:12.199Z,6.13
2018-07-10T10:45:43.912Z,5.27
2018-07-10T10:48:15.149Z,4.40
2018-07-10T10:50:51.485Z,3.10
2018-07-10T10:53:21.455Z,3.60
2018-07-10T10:55:50.597Z,2.72
2018-07-10T10:58:21.439Z,5.25
2018-07-10T11:00:50.629Z,4.47
2018-07-10T11:03:19.799Z,2.60
2018-07-10T11:05:48.907Z,3.97
2018-07-10T11:08:19.418Z,4.20
2018-07-10T11:10:48.660Z,3.70
2018-07-10T11:13:18.504Z,3.45
2018-07-10T11:15:49.757Z,6.70
2018-07-10T11:18:30.601Z,3.52
2018-07-10T11:21:37.663Z,6.37
2018-07-10T11:24:07.402Z,3.73
2018-07-10T11:26:41.206Z,3.37
2018-07-10T11:29:10.824Z,5.17
2018-07-10T11:31:41.264Z,3.73
2018-07-10T11:34:10.381Z,3.20
2018-07-10T11:36:39.476Z,8.50
2018-07-10T11:39:11.273Z,6.40
2018-07-10T11:41:44.936Z,4.50
2018-07-10T11:44:14.050Z,5.30
2018-07-10T11:46:43.131Z,5.87
2018-07-10T11:49:12.235Z,4.10
2018-07-10T11:51:41.373Z,4.43
2018-07-10T11:54:10.485Z,6.67
2018-07-10T11:56:39.653Z,7.30
2018-07-10T11:59:08.822Z,4.80
2018-07-10T12:01:38.973Z,6.37
2018-07-10T12:04:08.109Z,5.37
2018-07-10T12:06:45.888Z,4.30
2018-07-10T12:18:53.713Z,6.83
2018-07-10T12:21:23.133Z,9.93
2018-07-10T12:23:52.575Z,7.17
2018-07-10T12:26:22.542Z,8.27
2018-07-10T12:28:52.153Z,9.70
2018-07-10T12:31:21.279Z,9.67
2018-07-10T12:33:50.365Z,7.33
2018-07-10T12:36:19.476Z,12.00
2018-07-10T12:38:48.582Z,9.93
2018-07-10T12:41:17.680Z,11.43
2018-07-10T12:43:46.777Z,15.83
2018-07-10T12:46:15.883Z,13.73
2018-07-10T12:48:45.008Z,27.50
2018-07-10T12:51:14.136Z,17.55
2018-07-10T12:53:43.245Z,31.07
2018-07-10T12:56:12.535Z,11.50
2018-07-10T12:58:43.088Z,11.83
2018-07-10T13:01:12.241Z,10.10
2018-07-10T13:03:41.349Z,15.90
2018-07-10T13:06:10.477Z,14.80
2018-07-10T13:08:39.574Z,10.90
2018-07-10T13:11:08.699Z,11.10
2018-07-10T13:13:38.786Z,11.73
2018-07-10T13:16:08.350Z,32.10
2018-07-10T13:18:37.771Z,6.90
2018-07-10T13:21:07.543Z,7.60
2018-07-10T13:23:37.719Z,6.43
2018-07-10T13:26:07.737Z,5.50
2018-07-10T13:28:37.891Z,15.50
2018-07-10T13:31:07.982Z,5.60
2018-07-10T13:33:37.580Z,5.62
2018-07-10T13:36:07.661Z,6.83
2018-07-10T13:38:36.779Z,9.43
2018-07-10T13:41:05.872Z,16.70
2018-07-10T13:43:34.984Z,9.45
2018-07-10T13:46:04.073Z,8.67
2018-07-10T13:48:33.176Z,5.63
2018-07-10T13:51:02.259Z,12.20
2018-07-10T13:53:31.364Z,8.87
2018-07-10T13:56:00.478Z,7.53
2018-07-10T13:58:31.464Z,14.58
2018-07-10T14:01:08.308Z,13.20
2018-07-10T14:03:37.933Z,9.97
2018-07-10T14:06:07.441Z,20.05
2018-07-10T14:08:36.582Z,13.50
2018-07-10T14:11:05.688Z,11.47
2018-07-10T14:13:34.801Z,13.40
2018-07-10T14:16:03.998Z,15.50
2018-07-10T14:18:33.123Z,6.43
2018-07-10T14:21:03.896Z,8.80
2018-07-10T14:23:33.037Z,11.30
2018-07-10T14:26:02.140Z,16.85
2018-07-10T14:28:31.221Z,9.70
2018-07-10T14:31:00.476Z,10.23
2018-07-10T14:33:29.565Z,22.05
2018-07-10T14:35:58.666Z,8.37
2018-07-10T14:38:29.485Z,7.35
2018-07-10T14:41:00.269Z,13.40
2018-07-10T14:43:33.284Z,11.80
2018-07-10T14:46:07.820Z,10.67
2018-07-10T14:48:45.694Z,5.60
2018-07-10T14:51:17.928Z,8.50
2018-07-10T14:53:47.112Z,14.20
2018-07-10T14:56:17.021Z,10.03
2018-07-10T14:58:46.246Z,14.37
2018-07-10T15:01:16.053Z,7.33
2018-07-10T15:03:45.124Z,11.63
2018-07-10T15:06:14.253Z,8.13
2018-07-10T15:08:43.496Z,11.00
2018-07-10T15:11:12.612Z,9.53
2018-07-10T15:13:53.067Z,6.63
2018-07-10T15:16:22.202Z,7.13
2018-07-10T15:18:52.312Z,6.80
2018-07-10T15:21:23.068Z,8.67
2018-07-10T15:23:52.215Z,7.85
2018-07-10T15:26:21.339Z,7.87
2018-07-10T15:28:50.440Z,9.90
2018-07-10T15:31:19.535Z,10.53
2018-07-10T15:33:48.630Z,16.50
2018-07-10T15:36:18.401Z,10.88
2018-07-10T15:38:47.501Z,9.20
2018-07-10T15:41:16.712Z,8.80
2018-07-10T15:43:46.128Z,6.20
2018-07-10T15:46:15.331Z,5.80
2018-07-10T15:48:44.428Z,7.92
2018-07-10T15:51:13.935Z,4.60
2018-07-10T15:53:43.008Z,5.87
2018-07-10T15:56:12.128Z,5.60
2018-07-10T15:58:41.279Z,4.87
2018-07-10T16:01:10.361Z,3.10
2018-07-10T16:03:39.457Z,9.13
2018-07-10T16:06:08.600Z,3.90
2018-07-10T16:08:38.516Z,5.67
2018-07-10T16:11:07.671Z,2.07
2018-07-10T16:13:39.680Z,2.07
2018-07-10T16:16:10.074Z,2.27
2018-07-10T16:18:41.396Z,4.17
2018-07-10T16:21:11.165Z,2.83
2018-07-10T16:23:40.325Z,2.10
2018-07-10T16:26:15.108Z,3.20
2018-07-10T16:28:44.683Z,4.53
2018-07-10T16:31:18.513Z,4.25
2018-07-10T16:33:47.596Z,5.45
2018-07-10T16:36:17.437Z,12.78
2018-07-10T16:38:46.596Z,3.57
2018-07-10T16:41:22.633Z,3.20
2018-07-10T16:43:52.652Z,3.27
2018-07-10T16:46:24.069Z,2.40
2018-07-10T16:48:59.276Z,6.62
2018-07-10T16:51:31.745Z,4.10
2018-07-10T16:54:01.953Z,3.20
2018-07-10T16:56:31.049Z,1.57
2018-07-10T16:59:01.133Z,1.60
2018-07-10T17:01:30.220Z,1.47
2018-07-10T17:04:01.330Z,2.17
2018-07-10T17:06:30.400Z,2.95
2018-07-10T17:08:59.532Z,1.80
2018-07-10T17:11:28.608Z,2.13
2018-07-10T17:13:57.711Z,1.90
2018-07-10T17:16:27.652Z,4.23
2018-07-10T17:18:57.018Z,6.00
2018-07-10T17:21:27.523Z,7.17
2018-07-10T17:23:57.838Z,2.03
2018-07-10T17:26:26.912Z,5.08
2018-07-10T17:28:56.029Z,1.30
2018-07-10T17:31:25.124Z,3.73
2018-07-10T17:33:54.243Z,2.47
2018-07-10T17:36:23.327Z,1.93
2018-07-10T17:38:52.426Z,1.90
2018-07-10T17:41:21.529Z,1.37
2018-07-10T17:43:50.648Z,1.60
2018-07-10T17:46:19.792Z,3.43
2018-07-10T17:48:48.915Z,1.70
2018-07-10T17:51:18.024Z,5.55
2018-07-10T17:53:47.099Z,2.60
2018-07-10T17:56:16.219Z,4.30
2018-07-10T17:58:45.317Z,3.53
2018-07-10T18:01:14.425Z,6.97
2018-07-10T18:03:43.512Z,5.93
2018-07-10T18:06:12.651Z,2.10
2018-07-10T18:08:41.716Z,3.37
2018-07-10T18:11:10.848Z,3.73
2018-07-10T18:13:39.928Z,7.90
2018-07-10T18:16:09.411Z,9.58
2018-07-10T18:18:38.484Z,4.57
2018-07-10T18:21:07.582Z,2.07
2018-07-10T18:23:36.921Z,8.73
2018-07-10T18:26:06.041Z,3.02
2018-07-10T18:28:35.107Z,3.27
2018-07-10T18:31:04.213Z,1.80
2018-07-10T18:33:33.292Z,1.90
2018-07-10T18:36:02.798Z,1.10
2018-07-10T18:38:31.998Z,1.67
2018-07-10T18:41:02.151Z,7.30
2018-07-10T18:43:31.240Z,1.23
2018-07-10T18:46:00.343Z,1.63
2018-07-10T18:48:29.627Z,5.13
2018-07-10T18:50:58.625Z,2.03
2018-07-10T18:53:27.816Z,1.85
2018-07-10T18:55:56.956Z,3.10
2018-07-10T18:58:29.640Z,9.90
2018-07-10T19:01:04.885Z,3.30
2018-07-10T19:03:35.574Z,1.57
2018-07-10T19:06:08.357Z,2.00
2018-07-10T19:08:38.972Z,1.00
2018-07-10T19:11:08.751Z,1.23
2018-07-10T19:13:37.892Z,4.10
2018-07-10T19:16:06.982Z,1.53
2018-07-10T19:18:36.109Z,2.10
2018-07-10T19:21:32.784Z,2.30
2018-07-10T19:24:05.465Z,3.10
2018-07-10T19:26:36.668Z,2.03
2018-07-10T19:29:11.747Z,2.73
2018-07-10T19:31:40.856Z,3.00
2018-07-10T19:34:10.021Z,3.67
2018-07-10T19:36:39.121Z,2.53
2018-07-10T19:39:08.608Z,3.27
2018-07-10T19:41:37.692Z,6.08
2018-07-10T19:44:06.809Z,3.50
2018-07-10T19:46:36.536Z,5.60
2018-07-10T19:49:06.444Z,5.50
2018-07-10T19:51:35.553Z,13.43
2018-07-10T19:54:08.392Z,6.30
2018-07-10T19:56:37.614Z,11.77
2018-07-10T19:59:07.794Z,9.33
2018-07-10T20:01:50.750Z,8.70
2018-07-10T20:04:24.809Z,10.33
2018-07-10T20:07:15.175Z,13.48
2018-07-10T20:09:47.609Z,11.70
2018-07-10T20:12:20.284Z,18.90
2018-07-10T20:14:58.521Z,7.40
2018-07-10T20:17:31.127Z,8.52
2018-07-10T20:20:08.536Z,11.00
2018-07-10T20:23:17.281Z,15.03
2018-07-10T20:26:03.448Z,8.33
2018-07-10T20:28:42.237Z,10.40
2018-07-10T20:31:26.035Z,7.70
2018-07-10T20:34:51.904Z,9.03
2018-07-10T20:37:25.974Z,10.90
2018-07-10T20:39:55.140Z,8.90
2018-07-10T20:42:24.648Z,7.80
2018-07-10T20:44:59.747Z,12.00
2018-07-10T20:47:40.445Z,6.80
2018-07-10T20:50:09.564Z,12.35
2018-07-10T20:52:46.596Z,21.02
2018-07-10T20:55:15.758Z,6.97
2018-07-10T20:58:00.627Z,7.97
2018-07-10T21:00:34.726Z,8.43
2018-07-10T21:04:13.884Z,8.00
2018-07-10T21:07:01.604Z,7.87
2018-07-10T21:10:43.960Z,11.43
2018-07-10T21:13:19.496Z,8.57
2018-07-10T21:16:02.499Z,14.63
2018-07-10T21:18:45.552Z,11.60
2018-07-10T21:21:26.833Z,15.83
2018-07-10T21:24:02.296Z,11.60
2018-07-10T21:27:05.468Z,16.50
2018-07-10T21:29:46.889Z,10.80
2018-07-10T21:32:28.788Z,12.80
2018-07-10T21:35:02.081Z,10.27
2018-07-10T21:37:40.408Z,14.53
2018-07-10T21:40:24.486Z,27.47
2018-07-10T21:43:10.365Z,20.50
2018-07-10T21:45:58.201Z,18.03
2018-07-10T21:48:40.597Z,12.00
2018-07-10T21:51:09.748Z,18.83
2018-07-10T21:53:38.876Z,13.03
2018-07-10T21:56:08.054Z,20.80
2018-07-10T21:58:37.237Z,16.43
2018-07-10T22:01:49.805Z,17.93
2018-07-10T22:04:21.031Z,12.00
2018-07-10T22:06:52.415Z,15.13
2018-07-10T22:09:23.953Z,15.97
2018-07-10T22:11:53.374Z,18.83
2018-07-10T22:14:22.661Z,29.10
2018-07-10T22:16:51.776Z,24.53
2018-07-10T22:19:25.618Z,10.67
2018-07-10T22:21:55.603Z,17.17
2018-07-10T22:24:26.168Z,16.40
2018-07-10T22:26:58.037Z,28.27
2018-07-10T22:29:32.876Z,17.20
2018-07-10T22:32:06.160Z,12.70
2018-07-10T22:34:35.287Z,18.77
2018-07-10T22:37:04.392Z,19.63
2018-07-10T22:39:33.837Z,20.30
2018-07-10T22:42:02.973Z,18.23
2018-07-10T22:44:35.396Z,24.90
2018-07-10T22:47:05.201Z,15.00
2018-07-10T22:49:34.260Z,12.83
2018-07-10T22:52:04.053Z,12.53
2018-07-10T22:54:34.860Z,21.00
2018-07-10T22:57:06.400Z,12.53
2018-07-10T22:59:35.477Z,16.53
2018-07-10T23:02:04.572Z,14.17
2018-07-10T23:04:33.376Z,22.40
2018-07-10T23:07:02.203Z,13.57
2018-07-10T23:09:31.006Z,18.63
2018-07-10T23:11:59.908Z,21.50
2018-07-10T23:14:28.721Z,20.93
2018-07-10T23:16:57.584Z,12.00
2018-07-10T23:19:27.278Z,13.03
2018-07-10T23:21:56.088Z,16.57
2018-07-10T23:24:24.904Z,13.17
2018-07-10T23:26:53.706Z,26.27
2018-07-10T23:29:35.912Z,17.23
2018-07-10T23:32:05.970Z,25.10
2018-07-10T23:34:34.800Z,16.77
2018-07-10T23:37:05.480Z,16.70
2018-07-10T23:39:45.135Z,14.60
2018-07-10T23:42:37.163Z,18.63
2018-07-10T23:45:09.888Z,27.50
2018-07-10T23:47:40.792Z,29.17
2018-07-10T23:50:17.491Z,20.60
2018-07-10T23:53:52.868Z,29.10
2018-07-10T23:56:22.144Z,17.03
2018-07-10T23:58:51.567Z,13.23
